Time;durP1;ratioP1;P1;durP2;ratioP2;P2;SDS_P1;SDS_P2;PMS_P1;PMS_P2;Temp;Humidity;BMP_temperature;BMP_pressure;BME280_temperature;BME280_humidity;BME280_pressure;Samples;Min_cycle;Max_cycle;Signal;HPM_P1;HPM_P2
2022/11/27 00:01:23;;;;;;;9.40;5.97;;;3.50;85.20;;;;;;4951418;28;20270;-70
2022/11/27 00:03:50;;;;;;;12.43;4.30;;;3.50;85.30;;;;;;4953589;28;20266;-70
2022/11/27 00:06:18;;;;;;;9.53;5.53;;;3.50;85.20;;;;;;4946175;28;20269;-72
2022/11/27 00:08:44;;;;;;;10.17;5.60;;;3.50;85.30;;;;;;4948263;28;20597;-71
2022/11/27 00:11:13;;;;;;;7.40;6.00;;;3.40;85.50;;;;;;4951069;28;20191;-71
2022/11/27 00:13:39;;;;;;;9.40;5.80;;;3.50;85.80;;;;;;4954697;28;20218;-72
2022/11/27 00:16:06;;;;;;;6.57;5.20;;;3.40;86.10;;;;;;4950030;28;20191;-70
2022/11/27 00:18:32;;;;;;;12.60;6.67;;;3.50;86.30;;;;;;4954789;28;20198;-71
2022/11/27 00:21:06;;;;;;;9.77;5.87;;;3.40;86.30;;;;;;4953036;28;20187;-71
2022/11/27 00:23:33;;;;;;;8.90;5.83;;;3.40;86.30;;;;;;4956819;28;20691;-71
2022/11/27 00:25:58;;;;;;;7.93;5.50;;;3.40;86.10;;;;;;4957923;28;20656;-71
2022/11/27 00:28:24;;;;;;;7.63;4.90;;;3.40;86.10;;;;;;4951477;28;20195;-70
2022/11/27 00:30:50;;;;;;;5.60;4.80;;;3.40;86.10;;;;;;4951109;28;20667;-71
2022/11/27 00:33:16;;;;;;;7.63;5.63;;;3.40;86.00;;;;;;4947047;28;20709;-70
2022/11/27 00:35:41;;;;;;;9.70;5.37;;;3.40;86.20;;;;;;4950319;28;20179;-71
2022/11/27 00:38:07;;;;;;;8.93;4.93;;;3.40;86.00;;;;;;4949474;28;20189;-71
2022/11/27 00:40:34;;;;;;;9.53;5.53;;;3.40;86.10;;;;;;4948750;28;20183;-70
2022/11/27 00:43:00;;;;;;;9.73;6.40;;;3.40;86.00;;;;;;4947828;28;20179;-70
2022/11/27 00:45:26;;;;;;;8.57;5.67;;;3.40;85.80;;;;;;4953318;28;20179;-71
2022/11/27 00:47:52;;;;;;;11.70;5.87;;;3.40;86.20;;;;;;4951350;28;20295;-71
2022/11/27 00:50:18;;;;;;;9.20;5.97;;;3.40;86.20;;;;;;4951678;28;20664;-71
2022/11/27 00:52:44;;;;;;;13.73;6.10;;;3.40;86.20;;;;;;4948950;28;20258;-72
2022/11/27 00:55:11;;;;;;;11.40;5.70;;;3.40;86.20;;;;;;4951179;28;20356;-71
2022/11/27 00:57:36;;;;;;;10.30;5.67;;;3.40;86.10;;;;;;4950710;28;20187;-72
2022/11/27 01:00:04;;;;;;;12.23;6.50;;;3.40;85.70;;;;;;4950715;28;20178;-71
2022/11/27 01:02:30;;;;;;;13.27;6.13;;;3.40;85.80;;;;;;4946615;28;20699;-71
2022/11/27 01:04:55;;;;;;;12.37;6.50;;;3.40;85.80;;;;;;4956498;28;20191;-71
2022/11/27 01:07:21;;;;;;;8.83;5.93;;;3.40;86.00;;;;;;4950491;28;20198;-71
2022/11/27 01:09:47;;;;;;;9.47;6.33;;;3.40;86.10;;;;;;4952821;28;20195;-72
2022/11/27 01:12:12;;;;;;;11.47;6.73;;;3.40;86.30;;;;;;4952946;28;20175;-70
2022/11/27 01:14:38;;;;;;;7.73;5.83;;;3.40;86.30;;;;;;4948510;28;20254;-71
2022/11/27 01:17:04;;;;;;;9.57;6.43;;;3.40;86.20;;;;;;4958105;28;20645;-72
2022/11/27 01:19:29;;;;;;;11.63;7.33;;;3.40;85.90;;;;;;4951315;28;20274;-71
2022/11/27 01:21:55;;;;;;;8.00;5.23;;;3.30;85.80;;;;;;4950519;28;20195;-70
2022/11/27 01:24:21;;;;;;;6.17;5.37;;;3.30;85.90;;;;;;4951988;28;20190;-71
2022/11/27 01:26:46;;;;;;;8.20;6.43;;;3.30;86.20;;;;;;4948079;28;20190;-70
2022/11/27 01:29:12;;;;;;;8.57;5.80;;;3.40;86.30;;;;;;4947835;28;20187;-70
2022/11/27 01:31:38;;;;;;;10.33;5.37;;;3.40;86.30;;;;;;4954652;28;20175;-71
2022/11/27 01:34:06;;;;;;;9.80;6.57;;;3.30;86.60;;;;;;4951622;28;20221;-72
2022/11/27 01:36:33;;;;;;;10.73;6.17;;;3.30;86.70;;;;;;4947728;28;20187;-71
2022/11/27 01:38:59;;;;;;;10.27;6.10;;;3.30;86.30;;;;;;4949782;28;20549;-72
2022/11/27 01:41:34;;;;;;;10.63;7.17;;;3.20;86.40;;;;;;4954461;28;20179;-70
2022/11/27 01:44:18;;;;;;;11.70;7.20;;;3.30;86.60;;;;;;4958646;28;20185;-72
2022/11/27 01:46:47;;;;;;;10.97;6.47;;;3.20;86.60;;;;;;4954872;28;20261;-71
2022/11/27 01:49:32;;;;;;;9.13;5.30;;;3.20;86.40;;;;;;4958324;28;20648;-71
2022/11/27 01:52:12;;;;;;;7.80;5.47;;;3.10;86.30;;;;;;4950749;28;20190;-70
2022/11/27 01:55:03;;;;;;;8.57;5.97;;;3.10;86.30;;;;;;4933334;28;20927;-72
2022/11/27 01:57:39;;;;;;;8.63;5.33;;;3.10;86.20;;;;;;4954280;28;20248;-72
2022/11/27 02:00:07;;;;;;;8.00;5.67;;;3.20;86.60;;;;;;4956968;28;20236;-71
2022/11/27 02:02:33;;;;;;;6.57;5.00;;;3.20;86.50;;;;;;4952815;28;20187;-71
2022/11/27 02:04:59;;;;;;;6.47;5.27;;;3.20;86.40;;;;;;4952331;28;20194;-70
2022/11/27 02:07:25;;;;;;;8.57;6.00;;;3.30;86.40;;;;;;4951801;28;20198;-72
2022/11/27 02:09:51;;;;;;;12.57;6.03;;;3.30;86.70;;;;;;4957057;28;20182;-72
2022/11/27 02:12:51;;;;;;;11.20;5.77;;;3.30;86.90;;;;;;4951572;28;20739;-71
2022/11/27 02:15:37;;;;;;;8.17;5.83;;;3.40;87.00;;;;;;4868308;29;20260;-72
2022/11/27 02:18:22;;;;;;;6.10;4.50;;;3.50;87.90;;;;;;4868877;29;20830;-70
2022/11/27 02:21:04;;;;;;;10.80;5.63;;;3.50;87.10;;;;;;4869534;29;20245;-71
2022/11/27 02:24:05;;;;;;;14.20;6.33;;;3.50;86.80;;;;;;4869228;29;20326;-71
2022/11/27 02:26:48;;;;;;;10.33;5.87;;;3.50;86.70;;;;;;4867852;29;20620;-71
2022/11/27 02:29:18;;;;;;;9.43;5.97;;;3.50;86.60;;;;;;4866611;29;20247;-70
2022/11/27 02:31:58;;;;;;;10.90;4.97;;;3.60;87.10;;;;;;4867255;29;20194;-72
2022/11/27 02:34:26;;;;;;;12.23;6.43;;;3.60;86.60;;;;;;4867151;29;20797;-71
2022/11/27 02:37:00;;;;;;;11.33;6.20;;;3.60;86.50;;;;;;4867418;29;20190;-70
2022/11/27 02:39:36;;;;;;;8.80;5.53;;;3.70;87.00;;;;;;4867644;29;20828;-72
2022/11/27 02:42:15;;;;;;;12.47;6.07;;;3.70;86.70;;;;;;4869491;29;20338;-71
2022/11/27 02:45:08;;;;;;;9.77;5.67;;;3.70;86.20;;;;;;4868669;29;20240;-71
2022/11/27 02:47:34;;;;;;;7.43;6.00;;;3.70;86.30;;;;;;4795796;29;20274;-70
2022/11/27 02:50:01;;;;;;;11.33;6.10;;;3.80;87.00;;;;;;4795448;29;20200;-71
2022/11/27 02:52:28;;;;;;;9.43;6.23;;;3.70;86.40;;;;;;4818647;29;20255;-72
2022/11/27 02:54:58;;;;;;;7.00;6.30;;;3.80;86.40;;;;;;4840183;29;20206;-72
2022/11/27 02:57:26;;;;;;;10.37;5.60;;;3.80;86.30;;;;;;4839283;29;20250;-71
2022/11/27 02:59:54;;;;;;;10.03;5.13;;;3.80;86.20;;;;;;4841506;29;20262;-71
2022/11/27 03:02:25;;;;;;;13.10;6.57;;;3.80;86.60;;;;;;4842767;29;20195;-71
2022/11/27 03:04:54;;;;;;;13.87;6.50;;;3.90;86.40;;;;;;4842304;29;20227;-71
2022/11/27 03:07:39;;;;;;;11.60;6.50;;;3.90;86.80;;;;;;4841460;29;20285;-72
2022/11/27 03:10:11;;;;;;;6.80;4.73;;;3.90;86.30;;;;;;4845776;29;20199;-71
2022/11/27 03:12:37;;;;;;;9.93;6.17;;;3.90;86.40;;;;;;4843701;29;20210;-71
2022/11/27 03:15:04;;;;;;;8.67;5.60;;;4.00;86.90;;;;;;4844678;29;21039;-71
2022/11/27 03:17:39;;;;;;;13.30;6.67;;;4.00;87.10;;;;;;4843234;29;20703;-72
2022/11/27 03:20:19;;;;;;;9.70;6.33;;;4.00;86.70;;;;;;4838855;29;20587;-70
2022/11/27 03:22:45;;;;;;;11.20;6.33;;;4.00;87.10;;;;;;4841763;29;20183;-70
2022/11/27 03:25:11;;;;;;;11.97;7.00;;;4.10;87.10;;;;;;4925685;28;20611;-71
2022/11/27 03:27:47;;;;;;;8.90;6.67;;;4.00;86.90;;;;;;4950323;28;20183;-70
2022/11/27 03:30:13;;;;;;;6.67;5.37;;;3.90;86.60;;;;;;4953584;28;20691;-70
2022/11/27 03:32:39;;;;;;;6.33;4.33;;;3.90;86.80;;;;;;4934731;28;20211;-72
2022/11/27 03:35:08;;;;;;;9.80;6.30;;;3.90;86.50;;;;;;4948995;28;20191;-71
2022/11/27 03:37:35;;;;;;;16.07;7.27;;;3.90;87.20;;;;;;4950054;28;20210;-71
2022/11/27 03:40:02;;;;;;;12.50;5.83;;;3.90;86.80;;;;;;4951206;28;20186;-71
2022/11/27 03:42:31;;;;;;;12.20;6.23;;;3.90;86.60;;;;;;4952958;28;20179;-71
2022/11/27 03:44:59;;;;;;;9.10;6.10;;;3.90;86.50;;;;;;4947134;28;20233;-70
2022/11/27 03:47:31;;;;;;;8.90;5.80;;;3.90;86.80;;;;;;4932754;28;21032;-70
2022/11/27 03:50:15;;;;;;;14.67;7.00;;;3.90;86.40;;;;;;4948052;28;20186;-72
2022/11/27 03:52:49;;;;;;;10.83;6.17;;;3.90;86.60;;;;;;4946837;28;20264;-72
2022/11/27 03:55:26;;;;;;;7.33;5.10;;;3.90;87.00;;;;;;4946588;28;20585;-70
2022/11/27 03:58:24;;;;;;;11.17;6.10;;;3.90;87.20;;;;;;4951284;28;20187;-70
2022/11/27 04:00:51;;;;;;;11.90;5.70;;;4.00;87.10;;;;;;4885482;29;20208;-71
2022/11/27 04:03:24;;;;;;;13.50;6.37;;;3.90;86.80;;;;;;4887017;29;21800;-71
2022/11/27 04:05:50;;;;;;;9.37;6.20;;;3.90;87.00;;;;;;4887031;29;20614;-72
2022/11/27 04:08:16;;;;;;;7.80;5.40;;;3.80;86.50;;;;;;4885683;29;20188;-71
2022/11/27 04:10:41;;;;;;;13.87;5.90;;;3.80;86.70;;;;;;4886213;29;20193;-71
2022/11/27 04:13:07;;;;;;;7.73;5.60;;;3.80;87.10;;;;;;4887380;29;20216;-71
2022/11/27 04:15:32;;;;;;;10.93;6.00;;;3.80;87.00;;;;;;4883012;29;20557;-72
2022/11/27 04:17:58;;;;;;;10.83;6.70;;;3.80;87.10;;;;;;4885812;29;20228;-71
2022/11/27 04:20:24;;;;;;;10.83;5.33;;;3.80;87.10;;;;;;4886314;29;20325;-73
2022/11/27 04:22:49;;;;;;;9.03;5.43;;;3.70;86.60;;;;;;4886752;29;20311;-70
2022/11/27 04:25:15;;;;;;;11.60;6.10;;;3.70;86.60;;;;;;4885301;29;20239;-71
2022/11/27 04:27:41;;;;;;;9.23;6.23;;;3.70;86.30;;;;;;4885023;29;20680;-70
2022/11/27 04:30:07;;;;;;;12.83;5.97;;;3.70;86.50;;;;;;4886244;29;20712;-71
2022/11/27 04:32:33;;;;;;;10.93;5.63;;;3.60;86.20;;;;;;4884956;29;20201;-70
2022/11/27 04:34:58;;;;;;;12.50;6.20;;;3.60;86.40;;;;;;4885379;29;20593;-72
2022/11/27 04:37:24;;;;;;;9.47;5.87;;;3.70;86.40;;;;;;4903308;28;20195;-70
2022/11/27 04:39:50;;;;;;;8.00;6.27;;;3.70;86.40;;;;;;4949705;28;20689;-71
2022/11/27 04:42:16;;;;;;;9.17;5.80;;;3.70;86.60;;;;;;4951491;28;20194;-71
2022/11/27 04:44:41;;;;;;;11.47;6.50;;;3.70;87.00;;;;;;4949776;28;20305;-70
2022/11/27 04:47:07;;;;;;;9.97;5.70;;;3.70;86.70;;;;;;4948961;28;20976;-71
2022/11/27 04:49:33;;;;;;;9.07;5.67;;;3.70;86.80;;;;;;4950673;28;20202;-71
2022/11/27 04:51:58;;;;;;;12.87;6.97;;;3.80;87.00;;;;;;4950488;28;20282;-70
2022/11/27 04:54:24;;;;;;;11.73;6.07;;;3.80;86.60;;;;;;4953875;28;20210;-70
2022/11/27 04:56:51;;;;;;;13.30;6.60;;;3.80;86.80;;;;;;4950257;28;20217;-71
2022/11/27 04:59:17;;;;;;;14.03;6.50;;;3.80;86.70;;;;;;4952050;28;20187;-72
2022/11/27 05:01:43;;;;;;;9.70;7.03;;;3.80;86.40;;;;;;4952690;28;21707;-71
2022/11/27 05:04:08;;;;;;;9.50;5.87;;;3.80;86.40;;;;;;4949686;28;20669;-71
2022/11/27 05:06:34;;;;;;;8.37;5.80;;;3.90;86.50;;;;;;4955384;28;20191;-71
2022/11/27 05:09:00;;;;;;;13.57;6.53;;;3.90;86.80;;;;;;4948413;28;20698;-72
2022/11/27 05:11:28;;;;;;;8.70;5.87;;;3.90;86.90;;;;;;4949078;28;20272;-72
2022/11/27 05:16:39;;;;;;;12.10;6.13;;;3.90;87.00;;;;;;4949261;28;20202;-72
2022/11/27 05:19:04;;;;;;;11.00;6.87;;;3.90;87.10;;;;;;4951170;28;20668;-71
2022/11/27 05:21:30;;;;;;;10.77;7.00;;;3.90;87.10;;;;;;4948731;28;20186;-71
2022/11/27 05:23:55;;;;;;;14.53;6.17;;;3.90;86.90;;;;;;4952495;28;20610;-72
2022/11/27 05:26:21;;;;;;;8.80;6.40;;;3.90;86.80;;;;;;4927749;28;20211;-71
2022/11/27 05:28:47;;;;;;;11.20;6.03;;;3.80;86.60;;;;;;4947678;28;20210;-71
2022/11/27 05:31:12;;;;;;;9.50;5.90;;;3.80;86.80;;;;;;4950187;28;20195;-70
2022/11/27 05:33:38;;;;;;;11.80;5.53;;;3.80;86.40;;;;;;4948143;28;20190;-70
2022/11/27 05:36:04;;;;;;;7.23;5.43;;;3.70;86.60;;;;;;4952170;28;20190;-72
2022/11/27 05:38:30;;;;;;;10.23;5.93;;;3.80;86.70;;;;;;4953082;28;20186;-70
2022/11/27 05:40:56;;;;;;;10.30;6.30;;;3.80;86.70;;;;;;4954322;28;20182;-70
2022/11/27 05:43:21;;;;;;;10.50;6.13;;;3.80;86.70;;;;;;4950545;28;20221;-72
2022/11/27 05:45:47;;;;;;;8.67;5.30;;;3.80;86.80;;;;;;4946186;28;20747;-71
2022/11/27 05:48:13;;;;;;;9.33;6.33;;;3.80;87.00;;;;;;4949287;28;20178;-70
2022/11/27 05:50:38;;;;;;;12.93;5.73;;;3.80;87.00;;;;;;4955624;28;20187;-72
2022/11/27 05:53:04;;;;;;;12.00;6.40;;;3.70;86.50;;;;;;4947718;28;20217;-71
2022/11/27 05:55:30;;;;;;;9.97;6.83;;;3.70;86.70;;;;;;4947930;28;20195;-71
2022/11/27 05:57:56;;;;;;;13.17;6.43;;;3.70;86.80;;;;;;4948737;28;20275;-72
2022/11/27 06:00:22;;;;;;;7.37;6.00;;;3.70;86.70;;;;;;4950275;28;20302;-71
2022/11/27 06:02:48;;;;;;;9.93;5.53;;;3.70;86.70;;;;;;4947640;28;20317;-71
2022/11/27 06:05:14;;;;;;;15.67;6.87;;;3.80;87.20;;;;;;4949286;28;20218;-71
2022/11/27 06:07:39;;;;;;;12.47;5.53;;;3.80;87.50;;;;;;4949741;28;20191;-72
2022/11/27 06:10:05;;;;;;;22.33;7.37;;;3.80;87.70;;;;;;4949885;28;20257;-72
2022/11/27 06:12:32;;;;;;;11.73;6.37;;;3.80;87.60;;;;;;4951909;28;20214;-71
2022/11/27 06:14:57;;;;;;;15.43;6.90;;;3.80;87.70;;;;;;4945365;28;20663;-71
2022/11/27 06:17:23;;;;;;;9.50;5.80;;;3.80;87.80;;;;;;4953043;28;20190;-70
2022/11/27 06:19:50;;;;;;;11.73;6.80;;;3.80;87.80;;;;;;4953043;28;20237;-71
2022/11/27 06:22:16;;;;;;;10.80;5.47;;;3.80;87.60;;;;;;4934213;28;20649;-71
2022/11/27 06:24:41;;;;;;;7.10;5.70;;;3.80;87.50;;;;;;4952566;28;20226;-71
2022/11/27 06:27:07;;;;;;;9.77;6.60;;;3.80;87.60;;;;;;4952849;28;20257;-71
2022/11/27 06:29:33;;;;;;;12.40;7.17;;;3.80;87.80;;;;;;4954450;28;20190;-72
2022/11/27 06:31:58;;;;;;;9.20;6.67;;;3.90;87.90;;;;;;4956130;28;20199;-72
2022/11/27 06:34:24;;;;;;;11.13;6.20;;;3.90;87.20;;;;;;4956275;28;20331;-72
2022/11/27 06:36:50;;;;;;;9.83;6.37;;;3.90;86.90;;;;;;4953186;28;20277;-72
2022/11/27 06:39:16;;;;;;;10.17;5.40;;;3.90;87.20;;;;;;4960580;28;20198;-71
2022/11/27 06:41:42;;;;;;;12.23;5.57;;;4.00;87.90;;;;;;4951127;28;20237;-70
2022/11/27 06:44:09;;;;;;;9.67;5.90;;;4.10;87.80;;;;;;4955195;28;20216;-71
2022/11/27 06:46:35;;;;;;;9.97;6.43;;;4.10;87.80;;;;;;4951073;28;20664;-71
2022/11/27 06:49:00;;;;;;;13.53;6.90;;;4.20;87.90;;;;;;4954142;28;20187;-72
2022/11/27 06:51:28;;;;;;;9.30;5.90;;;4.20;87.70;;;;;;4952254;28;20187;-72
2022/11/27 06:53:54;;;;;;;6.87;5.73;;;4.20;87.30;;;;;;4955150;28;20191;-72
2022/11/27 06:56:22;;;;;;;11.87;6.70;;;4.20;87.80;;;;;;4951381;28;20187;-71
2022/11/27 06:58:56;;;;;;;9.67;6.47;;;4.30;87.70;;;;;;4950258;28;20191;-70
2022/11/27 07:01:23;;;;;;;9.23;6.43;;;4.30;87.60;;;;;;4950771;28;20245;-70
2022/11/27 07:03:49;;;;;;;10.67;6.70;;;4.40;87.40;;;;;;4948194;28;20218;-72
2022/11/27 07:06:18;;;;;;;10.20;7.17;;;4.40;87.20;;;;;;4952728;28;20596;-71
2022/11/27 07:08:44;;;;;;;8.67;6.47;;;4.40;87.20;;;;;;4954884;28;20266;-71
2022/11/27 07:11:13;;;;;;;14.93;7.73;;;4.40;87.10;;;;;;4951989;28;21160;-71
2022/11/27 07:13:39;;;;;;;12.07;6.77;;;4.40;87.10;;;;;;4948461;28;20587;-73
2022/11/27 07:16:07;;;;;;;10.93;6.60;;;4.40;86.80;;;;;;4953816;28;20330;-70
2022/11/27 07:18:41;;;;;;;17.13;7.80;;;4.40;86.70;;;;;;4946063;28;20303;-70
2022/11/27 07:21:08;;;;;;;15.20;7.90;;;4.40;86.70;;;;;;4951891;28;20195;-71
2022/11/27 07:23:34;;;;;;;14.27;7.57;;;4.50;86.90;;;;;;4951184;28;20192;-71
2022/11/27 07:26:09;;;;;;;13.13;7.57;;;4.60;87.20;;;;;;4953876;28;20248;-71
2022/11/27 07:28:35;;;;;;;17.43;8.40;;;4.70;86.80;;;;;;4955147;28;20204;-71
2022/11/27 07:31:01;;;;;;;22.57;9.70;;;4.70;86.40;;;;;;4953763;28;20755;-71
2022/11/27 07:33:27;;;;;;;18.77;9.93;;;4.80;86.80;;;;;;4952950;28;20195;-70
2022/11/27 07:36:04;;;;;;;14.47;8.60;;;4.70;86.10;;;;;;4945906;28;20866;-72
2022/11/27 07:38:30;;;;;;;13.90;7.93;;;4.80;86.30;;;;;;4946392;28;20200;-71
2022/11/27 07:41:00;;;;;;;20.43;9.27;;;4.80;86.10;;;;;;4953856;28;20668;-71
2022/11/27 07:43:27;;;;;;;12.57;8.47;;;4.80;86.00;;;;;;4949142;28;20179;-71
2022/11/27 07:45:54;;;;;;;22.83;9.90;;;4.90;86.10;;;;;;4955486;28;20187;-72
2022/11/27 07:48:20;;;;;;;14.53;8.37;;;5.00;86.60;;;;;;4949685;28;20210;-73
2022/11/27 07:50:46;;;;;;;16.00;10.23;;;5.10;86.10;;;;;;4951192;28;20188;-74
2022/11/27 07:53:11;;;;;;;18.63;9.93;;;5.20;86.40;;;;;;4954149;28;20262;-72
2022/11/27 07:55:38;;;;;;;22.57;9.83;;;5.20;86.00;;;;;;4952139;28;20218;-74
2022/11/27 07:58:05;;;;;;;20.30;9.83;;;5.20;85.70;;;;;;4951514;28;20211;-73
2022/11/27 08:00:30;;;;;;;17.27;8.73;;;5.30;85.70;;;;;;4951004;28;20187;-74
2022/11/27 08:02:58;;;;;;;14.73;10.13;;;5.30;85.70;;;;;;4955150;28;20685;-74
2022/11/27 08:05:24;;;;;;;17.13;9.87;;;5.40;85.50;;;;;;4955636;28;20217;-73
2022/11/27 08:07:50;;;;;;;19.30;10.47;;;5.50;85.80;;;;;;4952065;28;20186;-73
2022/11/27 08:10:16;;;;;;;17.97;10.63;;;5.50;85.30;;;;;;4947670;28;20246;-74
2022/11/27 08:12:42;;;;;;;17.43;10.80;;;5.50;85.10;;;;;;4952785;28;20265;-74
2022/11/27 08:15:08;;;;;;;19.73;10.33;;;5.60;84.90;;;;;;4949391;28;20210;-73
2022/11/27 08:17:34;;;;;;;23.03;11.20;;;5.60;85.00;;;;;;4950432;28;20186;-74
2022/11/27 08:20:00;;;;;;;20.53;11.07;;;5.60;84.80;;;;;;4949728;28;20265;-73
2022/11/27 08:22:26;;;;;;;17.23;10.00;;;5.70;85.20;;;;;;4948229;28;20301;-74
2022/11/27 08:24:51;;;;;;;23.10;11.60;;;5.80;84.80;;;;;;4949420;28;20238;-72
2022/11/27 08:27:18;;;;;;;20.33;11.37;;;5.80;84.40;;;;;;4946779;28;20668;-71
2022/11/27 08:29:43;;;;;;;17.03;10.43;;;5.90;84.80;;;;;;4949632;28;20187;-72
2022/11/27 08:32:10;;;;;;;20.03;10.80;;;5.90;84.60;;;;;;4949854;28;20206;-72
2022/11/27 08:34:36;;;;;;;14.63;10.53;;;6.00;84.40;;;;;;4952511;28;20575;-75
2022/11/27 08:37:03;;;;;;;16.83;10.47;;;6.00;84.50;;;;;;4948259;28;20182;-74
2022/11/27 08:39:29;;;;;;;15.77;10.07;;;6.10;84.30;;;;;;4951584;28;20214;-72
2022/11/27 08:41:55;;;;;;;15.90;10.47;;;6.10;84.20;;;;;;4953906;28;20175;-74
2022/11/27 08:44:20;;;;;;;17.60;10.33;;;6.10;84.20;;;;;;4951257;28;20300;-73
2022/11/27 08:46:46;;;;;;;19.20;10.17;;;6.20;84.30;;;;;;4954454;28;20266;-73
2022/11/27 08:49:12;;;;;;;19.70;9.93;;;6.30;84.30;;;;;;4955796;28;20198;-72
2022/11/27 08:51:38;;;;;;;22.10;10.83;;;6.30;84.20;;;;;;4951224;28;20190;-73
2022/11/27 08:54:03;;;;;;;14.03;9.17;;;6.30;84.10;;;;;;4951593;28;20187;-72
2022/11/27 08:56:29;;;;;;;19.80;11.30;;;6.40;84.00;;;;;;4951984;28;20213;-74
2022/11/27 08:58:56;;;;;;;18.17;11.03;;;6.40;83.90;;;;;;4950149;28;20178;-73
2022/11/27 09:01:28;;;;;;;19.27;11.57;;;6.40;83.50;;;;;;4949576;28;20199;-72
2022/11/27 09:03:54;;;;;;;21.17;11.63;;;6.40;83.30;;;;;;4934991;28;20210;-76
2022/11/27 09:06:23;;;;;;;19.90;12.07;;;6.50;83.30;;;;;;4934228;28;20195;-74
2022/11/27 09:08:50;;;;;;;25.73;13.30;;;6.50;83.40;;;;;;4947140;28;20193;-72
2022/11/27 09:11:18;;;;;;;22.50;13.00;;;6.60;83.30;;;;;;4946000;28;20190;-72
2022/11/27 09:13:45;;;;;;;24.40;11.93;;;6.60;83.10;;;;;;4952383;28;20703;-69
2022/11/27 09:16:13;;;;;;;24.40;12.67;;;6.70;83.40;;;;;;4949706;28;20191;-70
2022/11/27 09:18:39;;;;;;;24.07;13.17;;;6.80;83.50;;;;;;4947811;28;20190;-70
2022/11/27 09:21:08;;;;;;;23.77;13.33;;;6.90;81.90;;;;;;4949414;28;20584;-72
2022/11/27 09:23:34;;;;;;;29.60;13.80;;;7.00;81.70;;;;;;4947441;28;20191;-73
2022/11/27 09:26:01;;;;;;;25.83;14.63;;;6.90;81.60;;;;;;4945367;28;20261;-74
2022/11/27 09:28:27;;;;;;;23.93;13.23;;;6.90;82.10;;;;;;4952474;28;20240;-73
2022/11/27 09:30:57;;;;;;;26.67;15.77;;;6.90;82.90;;;;;;4953526;28;20186;-72
2022/11/27 09:33:25;;;;;;;25.47;14.93;;;7.00;82.70;;;;;;4936439;28;20225;-74
2022/11/27 09:35:50;;;;;;;26.20;15.07;;;7.10;83.00;;;;;;4953531;28;20206;-73
2022/11/27 09:38:16;;;;;;;23.70;14.33;;;7.20;83.10;;;;;;4957374;28;20194;-75
2022/11/27 09:40:54;;;;;;;30.23;15.07;;;7.30;83.20;;;;;;4954977;28;20618;-74
2022/11/27 09:43:29;;;;;;;23.37;14.43;;;7.50;83.00;;;;;;4949612;28;20187;-76
2022/11/27 09:46:02;;;;;;;20.57;12.90;;;7.60;83.20;;;;;;4950744;28;20194;-74
2022/11/27 09:48:36;;;;;;;27.57;14.63;;;7.80;83.30;;;;;;4946777;28;20681;-74
2022/11/27 09:51:17;;;;;;;23.03;14.03;;;8.00;83.20;;;;;;4952225;28;20615;-74
2022/11/27 09:53:49;;;;;;;28.40;15.70;;;8.20;83.20;;;;;;4954629;28;20183;-76
2022/11/27 09:56:17;;;;;;;33.00;17.00;;;8.40;82.90;;;;;;4951555;28;20191;-76
2022/11/27 09:58:56;;;;;;;28.73;14.87;;;8.60;82.80;;;;;;4951424;28;20250;-75
2022/11/27 10:01:32;;;;;;;25.20;15.07;;;8.70;82.10;;;;;;4954093;28;20185;-75
2022/11/27 10:04:01;;;;;;;30.10;15.17;;;8.90;80.50;;;;;;4956771;28;20214;-74
2022/11/27 10:06:58;;;;;;;31.67;17.23;;;9.00;80.00;;;;;;4954955;28;20187;-75
2022/11/27 10:09:50;;;;;;;24.97;13.87;;;9.10;80.10;;;;;;4949427;28;20197;-74
2022/11/27 10:13:10;;;;;;;27.30;13.97;;;9.30;80.30;;;;;;4952272;28;20190;-76
2022/11/27 10:15:44;;;;;;;23.60;12.98;;;9.30;79.80;;;;;;4919280;29;20195;-76
2022/11/27 10:18:25;;;;;;;26.75;13.60;;;9.50;79.40;;;;;;4915478;29;20198;-76
2022/11/27 10:20:57;;;;;;;26.67;13.77;;;9.60;79.00;;;;;;4917940;29;20347;-76
2022/11/27 10:23:34;;;;;;;25.75;15.10;;;9.60;78.20;;;;;;4917903;29;20200;-74
2022/11/27 10:26:08;;;;;;;22.38;14.20;;;9.70;78.00;;;;;;4921103;29;20200;-76
2022/11/27 10:28:57;;;;;;;28.58;13.68;;;9.70;78.00;;;;;;4918333;29;21014;-76
2022/11/27 10:31:35;;;;;;;23.70;13.93;;;9.80;77.60;;;;;;4913121;29;20189;-74
2022/11/27 10:34:18;;;;;;;25.33;13.80;;;9.90;77.60;;;;;;4911378;29;20204;-75
2022/11/27 10:36:48;;;;;;;26.00;14.68;;;10.00;77.20;;;;;;4915852;29;20870;-76
2022/11/27 10:39:34;;;;;;;25.83;14.27;;;10.10;77.70;;;;;;4915751;29;20326;-74
2022/11/27 10:42:24;;;;;;;23.00;13.30;;;10.20;77.10;;;;;;4916448;29;20184;-76
2022/11/27 10:44:58;;;;;;;25.33;13.45;;;10.30;76.90;;;;;;4913199;29;20286;-74
2022/11/27 10:47:26;;;;;;;28.13;14.30;;;10.40;77.00;;;;;;4945089;28;20286;-74
2022/11/27 10:49:51;;;;;;;26.30;14.90;;;10.50;76.70;;;;;;4954138;28;20195;-75
2022/11/27 10:52:18;;;;;;;26.17;14.80;;;10.50;76.50;;;;;;4953739;28;20195;-74
2022/11/27 10:54:51;;;;;;;29.52;15.35;;;10.50;75.60;;;;;;4950451;28;20201;-75
2022/11/27 10:57:39;;;;;;;23.95;14.50;;;10.50;75.70;;;;;;4950736;28;20178;-74
2022/11/27 11:00:13;;;;;;;29.67;13.82;;;10.50;75.70;;;;;;4950018;28;20192;-74
2022/11/27 11:02:40;;;;;;;23.63;14.07;;;10.40;75.70;;;;;;4954433;28;20612;-75
2022/11/27 11:05:25;;;;;;;21.58;13.25;;;10.40;74.30;;;;;;4950910;28;20227;-75
2022/11/27 11:08:00;;;;;;;24.65;14.07;;;10.40;75.40;;;;;;4948227;28;20231;-76
2022/11/27 11:10:36;;;;;;;29.33;14.38;;;10.30;74.00;;;;;;4950272;28;20190;-75
2022/11/27 11:13:13;;;;;;;20.70;12.57;;;10.30;74.50;;;;;;4951083;28;20213;-74
2022/11/27 11:15:47;;;;;;;20.00;12.90;;;10.20;74.00;;;;;;4950470;28;20187;-74
2022/11/27 11:18:28;;;;;;;17.00;11.40;;;10.10;74.10;;;;;;4949261;28;20182;-75
2022/11/27 11:21:00;;;;;;;20.13;11.38;;;10.00;74.40;;;;;;4947053;28;20193;-74
2022/11/27 11:23:35;;;;;;;19.52;11.77;;;10.00;75.50;;;;;;4945285;28;20214;-75
2022/11/27 11:26:14;;;;;;;23.83;12.80;;;10.00;75.00;;;;;;4948398;28;20202;-75
2022/11/27 11:28:49;;;;;;;15.75;11.15;;;10.00;74.90;;;;;;4953417;28;20210;-75
2022/11/27 11:31:40;;;;;;;16.83;11.55;;;10.00;75.40;;;;;;4932913;28;20193;-75
2022/11/27 11:34:30;;;;;;;16.20;11.25;;;9.90;74.90;;;;;;4952021;28;20761;-75
2022/11/27 11:37:04;;;;;;;16.75;11.52;;;9.80;75.00;;;;;;4949088;28;20191;-76
2022/11/27 11:39:45;;;;;;;13.00;9.38;;;9.80;75.10;;;;;;4949739;28;20193;-75
2022/11/27 11:42:20;;;;;;;14.63;9.80;;;9.80;75.30;;;;;;4953955;28;20229;-74
2022/11/27 11:44:51;;;;;;;13.15;8.48;;;9.80;75.30;;;;;;4952050;28;20224;-75
2022/11/27 11:47:20;;;;;;;12.07;7.72;;;9.80;75.00;;;;;;4949348;28;20209;-75
2022/11/27 11:49:46;;;;;;;10.85;7.93;;;9.70;75.10;;;;;;4948373;28;20586;-75
2022/11/27 11:52:21;;;;;;;11.63;7.97;;;9.70;75.20;;;;;;4953552;28;20179;-74
2022/11/27 11:55:17;;;;;;;13.40;8.20;;;9.80;75.00;;;;;;4950695;28;20275;-75
2022/11/27 11:58:19;;;;;;;11.60;8.27;;;9.70;75.20;;;;;;4906547;29;20207;-74
2022/11/27 12:00:48;;;;;;;11.73;7.38;;;9.70;75.20;;;;;;4905807;29;20196;-74
2022/11/27 12:03:37;;;;;;;10.65;7.25;;;9.60;75.10;;;;;;4910645;29;20192;-77
2022/11/27 12:06:14;;;;;;;8.00;6.03;;;9.70;75.00;;;;;;4907217;29;20334;-75
2022/11/27 12:08:54;;;;;;;10.68;6.85;;;9.60;74.40;;;;;;4911243;29;20202;-75
2022/11/27 12:11:34;;;;;;;9.63;6.63;;;9.60;74.60;;;;;;4908238;29;20192;-75
2022/11/27 12:14:14;;;;;;;8.40;5.95;;;9.50;74.70;;;;;;4907641;29;20202;-75
2022/11/27 12:16:47;;;;;;;12.77;7.13;;;9.50;73.70;;;;;;4909576;29;20212;-75
2022/11/27 12:19:42;;;;;;;10.30;6.67;;;9.40;74.20;;;;;;4906118;29;20184;-75
2022/11/27 12:22:36;;;;;;;9.85;5.93;;;9.40;74.00;;;;;;4904905;29;20268;-75
2022/11/27 12:25:21;;;;;;;9.68;6.45;;;9.30;73.80;;;;;;4853472;29;20914;-74
2022/11/27 12:27:49;;;;;;;7.80;6.72;;;9.20;74.10;;;;;;4855655;29;20194;-75
2022/11/27 12:30:45;;;;;;;11.63;6.65;;;9.10;74.10;;;;;;4850581;29;20203;-74
2022/11/27 12:33:25;;;;;;;10.70;7.00;;;9.00;74.50;;;;;;4854590;29;20720;-74
2022/11/27 12:35:55;;;;;;;9.68;6.72;;;9.00;74.60;;;;;;4870152;29;20642;-75
2022/11/27 12:38:32;;;;;;;8.10;6.78;;;9.00;74.70;;;;;;4870961;29;20216;-74
2022/11/27 12:41:24;;;;;;;11.45;6.55;;;8.90;74.80;;;;;;4875480;29;20673;-76
2022/11/27 12:43:54;;;;;;;11.02;6.57;;;8.90;74.70;;;;;;4871953;29;20252;-75
2022/11/27 12:46:45;;;;;;;8.93;7.20;;;8.90;74.40;;;;;;4871991;29;20201;-75
2022/11/27 12:49:19;;;;;;;7.90;6.10;;;8.80;74.50;;;;;;4869392;29;21417;-75
2022/11/27 12:52:14;;;;;;;11.57;6.85;;;8.80;74.50;;;;;;4872481;29;20307;-75
2022/11/27 12:54:48;;;;;;;12.33;6.37;;;8.70;74.70;;;;;;4840147;29;20207;-74
2022/11/27 12:57:25;;;;;;;11.00;7.07;;;8.70;74.60;;;;;;4840266;29;20227;-75
2022/11/27 12:59:57;;;;;;;12.48;8.43;;;8.70;74.60;;;;;;4839907;29;20202;-75
2022/11/27 13:02:45;;;;;;;8.90;7.33;;;8.60;74.80;;;;;;4872354;29;20440;-76
2022/11/27 13:05:19;;;;;;;13.43;7.87;;;8.60;75.00;;;;;;4888842;29;20231;-75
2022/11/27 13:08:29;;;;;;;11.90;7.47;;;8.50;75.10;;;;;;4891977;29;20200;-75